Bookmark and Share
Track history (hours):
 

Ever Decent

Last reported at 2014-Apr-22 14:33 UTC. Time now 2014-Apr-23 07:03 UTC.
Position N 38°40' W 076°25'.

Length 294 m; draft 12.4 m.

Type: Ship (hazmat cat D). MMSI: 564904000.

NotesDate/timePositionNaut miles runAvg speedWind from/ knotsBaromVisibWave heightAir tempDewpointWater temp
2014-Apr-22 14:33N 38°40' W 076°25'1515.0
2014-Apr-22 13:33N 38°55' W 076°23'1313.0
2014-Apr-22 12:33N 39°08' W 076°24'1010.0
2014-Apr-22 11:33N 39°15' W 076°33'1 0.7
2014-Apr-22 10:33N 39°15' W 076°33'0 0.0
2014-Apr-22 09:33N 39°15' W 076°33'0 0.0
2014-Apr-22 08:33N 39°15' W 076°33'0 0.0
2014-Apr-22 07:33N 39°15' W 076°33'0 0.0
2014-Apr-22 06:33N 39°15' W 076°33'0 0.0
2014-Apr-22 05:33N 39°15' W 076°33'0 0.0
2014-Apr-22 04:33N 39°15' W 076°33'0 0.0
2014-Apr-22 03:34N 39°15' W 076°33'0 0.0
2014-Apr-22 02:34N 39°15' W 076°33'0 0.0
2014-Apr-22 01:34N 39°15' W 076°33'0 0.0
2014-Apr-22 00:33N 39°15' W 076°33'0 0.0
2014-Apr-21 23:34N 39°15' W 076°33'0 0.0
2014-Apr-21 22:34N 39°15' W 076°33'0 0.0
2014-Apr-21 21:33N 39°15' W 076°33'0 0.0
2014-Apr-21 20:33N 39°15' W 076°33'0 0.0
2014-Apr-21 19:34N 39°15' W 076°33'0 0.0
2014-Apr-21 18:34N 39°15' W 076°33'0 0.0
2014-Apr-21 17:33N 39°15' W 076°33'0 0.0
2014-Apr-21 16:33N 39°15' W 076°33'0 0.0
2014-Apr-21 15:33N 39°15' W 076°33'0 0.0
2014-Apr-21 14:33N 39°15' W 076°33'0 0.0
2014-Apr-21 13:33N 39°15' W 076°33'0 0.0
2014-Apr-21 12:33N 39°15' W 076°33'0 0.0
2014-Apr-21 11:33N 39°15' W 076°33'0 0.0
2014-Apr-21 10:33N 39°15' W 076°33'0 0.0
2014-Apr-21 09:33N 39°15' W 076°33'0 0.0
2014-Apr-21 08:34N 39°15' W 076°33'0 0.0
2014-Apr-21 07:33N 39°15' W 076°33'0 0.0
2014-Apr-21 06:33N 39°15' W 076°33'0 0.0
2014-Apr-21 05:34N 39°15' W 076°33'0 0.0
2014-Apr-21 04:33N 39°15' W 076°33'0 0.0
2014-Apr-21 03:33N 39°15' W 076°33'0 0.0
2014-Apr-21 02:33N 39°15' W 076°33'0 0.0
2014-Apr-21 01:33N 39°15' W 076°33'0 0.0
2014-Apr-21 00:33N 39°15' W 076°33'0 0.0
2014-Apr-20 23:33N 39°15' W 076°33'0 0.0
2014-Apr-20 22:34N 39°15' W 076°33'0 0.0
2014-Apr-20 21:33N 39°15' W 076°33'0 0.0
2014-Apr-20 20:33N 39°15' W 076°33'0 0.0
2014-Apr-20 19:33N 39°15' W 076°33'0 0.0
2014-Apr-20 18:33N 39°15' W 076°33'0 0.0
2014-Apr-20 17:34N 39°15' W 076°33'0 0.0
2014-Apr-20 16:33N 39°15' W 076°33'0 0.0
2014-Apr-20 15:34N 39°15' W 076°33'0 0.0
2014-Apr-20 14:33N 39°15' W 076°33'0 0.0
2014-Apr-20 13:33N 39°15' W 076°33'0 0.0
2014-Apr-20 12:33N 39°15' W 076°33'0 0.0
2014-Apr-20 11:33N 39°15' W 076°33'0 0.0
2014-Apr-20 10:33N 39°15' W 076°33'2 2.1
2014-Apr-20 09:34N 39°13' W 076°32'10 9.7
2014-Apr-20 08:33N 39°06' W 076°24'10 9.9
2014-Apr-20 07:33N 38°56' W 076°23'1918.5
2014-Apr-20 06:33N 38°38' W 076°25'96 7.7
2014-Apr-19 18:00N 37°24' W 075°06'6813.7 110 / 151026.0 5.4 5.018.014.816.0
2014-Apr-19 13:04N 38°26' W 074°31'713.8
2014-Apr-19 12:34N 38°32' W 074°27'1713.7
2014-Apr-19 11:18N 38°48' W 074°19'2913.7
2014-Apr-19 09:12N 39°15' W 074°06'1013.6
2014-Apr-19 08:25N 39°25' W 074°01'1213.5
2014-Apr-19 07:33N 39°36' W 073°56'1313.4
2014-Apr-19 06:34N 39°49' W 073°51'1413.6
2014-Apr-19 05:33N 40°02' W 073°51'1110.9
2014-Apr-19 04:33N 40°13' W 073°49'10 9.5
2014-Apr-19 03:33N 40°23' W 073°49'8 8.3
2014-Apr-19 02:34N 40°29' W 073°55'1212.0
2014-Apr-19 01:33N 40°39' W 074°05'3 3.0
2014-Apr-19 00:33N 40°41' W 074°08'1 0.6
2014-Apr-18 23:31N 40°41' W 074°09'0 0.0
2014-Apr-18 22:28N 40°41' W 074°09'0 0.0
2014-Apr-18 21:31N 40°41' W 074°09'0 0.0
2014-Apr-18 20:31N 40°41' W 074°09'0 0.0
2014-Apr-18 19:32N 40°41' W 074°09'0 0.0
2014-Apr-18 18:23N 40°41' W 074°09'0 0.0
2014-Apr-18 17:29N 40°41' W 074°09'0 0.0
2014-Apr-18 16:32N 40°41' W 074°09'0 0.0
2014-Apr-18 15:33N 40°41' W 074°09'0 0.0
2014-Apr-18 14:34N 40°41' W 074°09'0 0.0
2014-Apr-18 13:34N 40°41' W 074°09'0 0.0
2014-Apr-18 12:31N 40°41' W 074°09'0 0.0
2014-Apr-18 11:33N 40°41' W 074°09'0 0.0
2014-Apr-18 10:33N 40°41' W 074°09'2 2.3
2014-Apr-18 09:33N 40°39' W 074°09'5 5.1
2014-Apr-18 08:33N 40°37' W 074°03'1110.8
2014-Apr-18 07:33N 40°29' W 073°53'6 6.2
2014-Apr-18 06:33N 40°24' W 073°47'11 8.2
2014-Apr-18 05:16N 40°14' W 073°45'8 9.1
2014-Apr-18 04:25N 40°06' W 073°44'1415.6
2014-Apr-18 03:32N 39°52' W 073°43'1817.9
2014-Apr-18 02:33N 39°35' W 073°43'2318.4
2014-Apr-18 01:17N 39°12' W 073°46'  
2014-Apr-13 18:00N 21°12' W 074°18'   050 / 211017.0 5.4 5.026.023.223.0

Dump ship's entire track history

sailing weather and tide predictions

Ever Decent — 9V7952 — position and weather